Time;durP1;ratioP1;P1;durP2;ratioP2;P2;SDS_P1;SDS_P2;PMS_P1;PMS_P2;Temp;Humidity;BMP_temperature;BMP_pressure;BME280_temperature;BME280_humidity;BME280_pressure;Samples;Min_cycle;Max_cycle;Signal;HPM_P1;HPM_P2
2021/10/11 00:01:06;;;;;;;8.30;2.60;;;;;;;;;;5049225;28;20619;-66
2021/10/11 00:03:33;;;;;;;9.15;2.65;;;;;;;;;;5056309;28;20131;-65
2021/10/11 00:05:59;;;;;;;8.63;2.75;;;;;;;;;;5053472;28;20048;-65
2021/10/11 00:08:25;;;;;;;12.40;2.78;;;;;;;;;;5053435;28;20044;-65
2021/10/11 00:10:52;;;;;;;11.18;2.35;;;;;;;;;;5041187;28;20049;-65
2021/10/11 00:13:19;;;;;;;8.32;2.00;;;;;;;;;;5049893;28;20044;-65
2021/10/11 00:15:46;;;;;;;11.73;2.13;;;;;;;;;;5062736;28;20052;-65
2021/10/11 00:18:12;;;;;;;8.90;2.20;;;;;;;;;;5049006;28;20044;-65
2021/10/11 00:20:39;;;;;;;6.68;2.03;;;;;;;;;;5055343;28;20119;-65
2021/10/11 00:23:05;;;;;;;8.02;2.20;;;;;;;;;;5043588;28;20052;-64
2021/10/11 00:25:32;;;;;;;7.00;2.10;;;;;;;;;;5052646;28;20135;-64
2021/10/11 00:27:58;;;;;;;7.45;2.30;;;;;;;;;;5050892;28;20059;-65
2021/10/11 00:30:24;;;;;;;8.07;2.13;;;;;;;;;;5037397;28;20051;-65
2021/10/11 00:32:50;;;;;;;8.45;2.45;;;;;;;;;;5057572;28;20040;-65
2021/10/11 00:35:17;;;;;;;8.48;2.47;;;;;;;;;;5028439;28;20045;-64
2021/10/11 00:37:43;;;;;;;11.30;2.40;;;;;;;;;;5049941;28;20044;-64
2021/10/11 00:40:10;;;;;;;10.00;2.17;;;;;;;;;;5050223;28;20387;-65
2021/10/11 00:42:36;;;;;;;7.30;2.20;;;;;;;;;;5048678;28;20060;-65
2021/10/11 00:45:03;;;;;;;8.15;2.22;;;;;;;;;;5047777;28;20044;-65
2021/10/11 00:47:29;;;;;;;10.43;2.05;;;;;;;;;;5042310;28;20394;-65
2021/10/11 00:49:56;;;;;;;13.20;3.47;;;;;;;;;;5049657;28;20055;-65
2021/10/11 00:52:23;;;;;;;9.48;2.30;;;;;;;;;;5048087;28;20064;-65
2021/10/11 00:54:49;;;;;;;11.77;2.75;;;;;;;;;;5049801;28;20417;-65
2021/10/11 00:57:15;;;;;;;9.10;2.58;;;;;;;;;;5055030;28;20057;-65
2021/10/11 00:59:43;;;;;;;10.73;2.30;;;;;;;;;;5054777;28;20067;-64
2021/10/11 01:02:09;;;;;;;4.70;1.98;;;;;;;;;;5048657;28;20045;-65
2021/10/11 01:04:36;;;;;;;6.82;2.28;;;;;;;;;;5037256;28;20049;-65
2021/10/11 01:07:02;;;;;;;11.40;2.40;;;;;;;;;;5051180;28;20386;-65
2021/10/11 01:09:28;;;;;;;9.00;2.80;;;;;;;;;;5045165;28;20053;-65
2021/10/11 01:11:55;;;;;;;6.18;2.45;;;;;;;;;;5051687;28;20183;-64
2021/10/11 01:14:21;;;;;;;5.97;2.13;;;;;;;;;;5064348;28;20071;-65
2021/10/11 01:16:48;;;;;;;10.23;2.75;;;;;;;;;;5046939;28;20048;-65
2021/10/11 01:19:14;;;;;;;7.88;2.47;;;;;;;;;;5055021;28;20048;-65
2021/10/11 01:21:40;;;;;;;11.57;3.10;;;;;;;;;;5047322;28;20079;-65
2021/10/11 01:24:07;;;;;;;12.82;2.78;;;;;;;;;;5036472;28;20055;-65
2021/10/11 01:26:36;;;;;;;7.93;2.50;;;;;;;;;;5055219;28;20642;-65
2021/10/11 01:29:03;;;;;;;10.32;2.83;;;;;;;;;;5055403;28;20599;-65
2021/10/11 01:31:29;;;;;;;8.95;2.50;;;;;;;;;;5053241;28;20052;-64
2021/10/11 01:33:56;;;;;;;7.07;2.40;;;;;;;;;;5060255;28;20166;-65
2021/10/11 01:36:22;;;;;;;13.20;3.08;;;;;;;;;;5067062;28;20520;-64
2021/10/11 01:38:51;;;;;;;14.20;3.00;;;;;;;;;;5046370;28;20052;-64
2021/10/11 01:41:18;;;;;;;11.32;3.55;;;;;;;;;;5047316;28;20536;-65
2021/10/11 01:43:44;;;;;;;9.50;3.03;;;;;;;;;;5052707;28;20044;-64
2021/10/11 01:46:10;;;;;;;10.95;3.25;;;;;;;;;;5039002;28;20537;-65
2021/10/11 01:48:36;;;;;;;12.00;3.20;;;;;;;;;;5055960;28;20064;-65
2021/10/11 01:51:03;;;;;;;5.75;2.53;;;;;;;;;;5039504;28;20496;-65
2021/10/11 01:53:29;;;;;;;12.15;2.75;;;;;;;;;;5056884;28;20040;-65
2021/10/11 01:55:55;;;;;;;8.40;2.83;;;;;;;;;;5038442;28;20409;-65
2021/10/11 01:58:22;;;;;;;8.07;2.80;;;;;;;;;;5051743;28;20067;-65
2021/10/11 02:00:48;;;;;;;11.80;3.22;;;;;;;;;;5040018;28;20410;-65
2021/10/11 02:03:14;;;;;;;10.43;3.08;;;;;;;;;;5044887;28;20134;-65
2021/10/11 02:05:41;;;;;;;10.90;3.78;;;;;;;;;;5043587;28;20055;-65
2021/10/11 02:08:07;;;;;;;16.05;3.63;;;;;;;;;;5047693;28;20048;-65
2021/10/11 02:10:34;;;;;;;10.32;3.17;;;;;;;;;;5045500;28;20425;-65
2021/10/11 02:13:01;;;;;;;10.35;3.30;;;;;;;;;;5043915;28;20278;-65
2021/10/11 02:15:27;;;;;;;9.40;3.38;;;;;;;;;;5040794;28;20095;-64
2021/10/11 02:17:53;;;;;;;10.15;3.95;;;;;;;;;;5058363;28;20055;-65
2021/10/11 02:20:20;;;;;;;11.43;3.83;;;;;;;;;;5047781;28;20509;-65
2021/10/11 02:22:46;;;;;;;10.40;3.60;;;;;;;;;;5059049;28;20049;-64
2021/10/11 02:25:12;;;;;;;12.77;4.10;;;;;;;;;;5048231;28;20334;-65
2021/10/11 02:27:39;;;;;;;12.95;3.88;;;;;;;;;;5050047;28;20056;-64
2021/10/11 02:30:06;;;;;;;11.73;3.15;;;;;;;;;;5043702;28;20053;-65
2021/10/11 02:32:32;;;;;;;13.88;3.78;;;;;;;;;;5055333;28;20052;-65
2021/10/11 02:34:58;;;;;;;12.27;3.22;;;;;;;;;;5029766;28;20052;-65
2021/10/11 02:37:25;;;;;;;12.10;3.15;;;;;;;;;;5048166;28;20056;-65
2021/10/11 02:39:55;;;;;;;9.23;3.05;;;;;;;;;;5040109;28;20056;-65
2021/10/11 02:42:21;;;;;;;8.85;3.25;;;;;;;;;;5046840;28;20059;-66
2021/10/11 02:44:48;;;;;;;11.90;3.60;;;;;;;;;;5053069;28;20063;-65
2021/10/11 02:47:14;;;;;;;11.48;2.90;;;;;;;;;;5059415;28;20056;-65
2021/10/11 02:49:40;;;;;;;14.80;3.67;;;;;;;;;;5037712;28;20417;-64
2021/10/11 02:52:07;;;;;;;13.75;3.15;;;;;;;;;;5058949;28;20528;-65
2021/10/11 02:54:33;;;;;;;14.45;3.13;;;;;;;;;;5043739;28;20308;-65
2021/10/11 02:57:00;;;;;;;10.27;2.85;;;;;;;;;;5057662;28;20051;-65
2021/10/11 02:59:26;;;;;;;8.82;2.47;;;;;;;;;;5046664;28;20048;-64
2021/10/11 03:01:52;;;;;;;9.57;2.47;;;;;;;;;;5058849;28;20731;-64
2021/10/11 03:04:19;;;;;;;9.73;2.70;;;;;;;;;;5043568;28;20085;-63
2021/10/11 03:06:45;;;;;;;9.63;2.92;;;;;;;;;;5046069;28;21560;-64
2021/10/11 03:09:11;;;;;;;10.60;2.47;;;;;;;;;;5037289;28;20049;-63
2021/10/11 03:11:38;;;;;;;10.82;2.40;;;;;;;;;;5050790;28;20063;-65
2021/10/11 03:14:04;;;;;;;13.25;2.90;;;;;;;;;;5043838;28;20053;-64
2021/10/11 03:16:32;;;;;;;10.68;2.20;;;;;;;;;;5050706;28;20079;-65
2021/10/11 03:18:58;;;;;;;12.50;2.30;;;;;;;;;;5041912;28;20052;-66
2021/10/11 03:21:24;;;;;;;9.43;2.38;;;;;;;;;;5055556;28;20510;-65
2021/10/11 03:23:51;;;;;;;12.73;2.92;;;;;;;;;;5043901;28;20056;-65
2021/10/11 03:26:18;;;;;;;11.32;2.38;;;;;;;;;;5058768;28;20056;-65
2021/10/11 03:28:44;;;;;;;13.70;2.45;;;;;;;;;;5047257;28;20519;-65
2021/10/11 03:31:11;;;;;;;8.65;2.45;;;;;;;;;;5060393;28;20127;-65
2021/10/11 03:33:38;;;;;;;11.35;2.75;;;;;;;;;;5035557;28;20041;-66
2021/10/11 03:36:05;;;;;;;10.15;2.42;;;;;;;;;;5050144;28;20075;-64
2021/10/11 03:38:31;;;;;;;9.45;2.50;;;;;;;;;;5054736;28;20056;-64
2021/10/11 03:40:58;;;;;;;7.18;2.72;;;;;;;;;;5054219;28;20052;-65
2021/10/11 03:43:24;;;;;;;9.25;2.80;;;;;;;;;;5046348;28;20124;-65
2021/10/11 03:45:51;;;;;;;8.75;2.38;;;;;;;;;;5050771;28;20049;-64
2021/10/11 03:48:17;;;;;;;6.80;2.50;;;;;;;;;;5039471;28;20048;-61
2021/10/11 03:50:46;;;;;;;6.93;2.35;;;;;;;;;;5047402;28;20402;-65
2021/10/11 03:53:13;;;;;;;6.40;2.58;;;;;;;;;;5053173;28;20049;-65
2021/10/11 03:55:40;;;;;;;11.23;2.88;;;;;;;;;;5055746;28;20052;-65
2021/10/11 03:58:07;;;;;;;8.75;2.70;;;;;;;;;;5042525;28;20045;-65
2021/10/11 04:00:34;;;;;;;8.00;2.55;;;;;;;;;;5056193;28;20049;-63
2021/10/11 04:03:03;;;;;;;8.52;2.60;;;;;;;;;;5030624;28;20103;-65
2021/10/11 04:05:30;;;;;;;7.20;2.75;;;;;;;;;;5060514;28;20055;-65
2021/10/11 04:08:00;;;;;;;7.80;2.50;;;;;;;;;;5043494;28;20084;-65
2021/10/11 04:10:31;;;;;;;12.18;2.20;;;;;;;;;;5055560;28;20049;-64
2021/10/11 04:13:02;;;;;;;7.20;2.65;;;;;;;;;;5047304;28;20153;-65
2021/10/11 04:15:29;;;;;;;9.63;2.40;;;;;;;;;;5044904;28;20053;-65
2021/10/11 04:17:55;;;;;;;9.98;2.78;;;;;;;;;;5047543;28;20070;-65
2021/10/11 04:20:22;;;;;;;9.52;2.75;;;;;;;;;;5052846;28;20106;-64
2021/10/11 04:22:48;;;;;;;8.10;2.60;;;;;;;;;;5048664;28;20040;-64
2021/10/11 04:25:15;;;;;;;5.55;2.15;;;;;;;;;;5051677;28;20110;-64
2021/10/11 04:27:41;;;;;;;5.38;2.53;;;;;;;;;;5062264;28;20048;-64
2021/10/11 04:30:08;;;;;;;9.85;2.22;;;;;;;;;;5055096;28;20055;-65
2021/10/11 04:32:34;;;;;;;6.95;2.38;;;;;;;;;;5045162;28;20040;-65
2021/10/11 04:35:00;;;;;;;7.93;2.65;;;;;;;;;;5056723;28;20049;-65
2021/10/11 04:37:26;;;;;;;9.00;2.65;;;;;;;;;;5054515;28;20710;-63
2021/10/11 04:39:53;;;;;;;9.95;2.58;;;;;;;;;;5061395;28;20942;-65
2021/10/11 04:42:19;;;;;;;8.95;2.45;;;;;;;;;;5022523;28;20048;-65
2021/10/11 04:44:46;;;;;;;7.95;3.00;;;;;;;;;;5052851;28;20393;-62
2021/10/11 04:47:12;;;;;;;9.38;2.50;;;;;;;;;;5043895;28;20063;-65
2021/10/11 04:49:38;;;;;;;7.28;2.90;;;;;;;;;;5051758;28;20433;-66
2021/10/11 04:52:05;;;;;;;8.57;2.60;;;;;;;;;;5045321;28;20049;-65
2021/10/11 04:54:31;;;;;;;7.93;2.50;;;;;;;;;;5050624;28;20064;-65
2021/10/11 04:56:57;;;;;;;6.82;2.10;;;;;;;;;;5048177;28;20417;-64
2021/10/11 04:59:24;;;;;;;8.90;2.50;;;;;;;;;;5052015;28;20365;-65
2021/10/11 05:01:50;;;;;;;10.00;3.15;;;;;;;;;;5042270;28;20049;-64
2021/10/11 05:04:17;;;;;;;4.28;2.40;;;;;;;;;;5056306;28;20413;-63
2021/10/11 05:06:43;;;;;;;12.13;2.97;;;;;;;;;;5038093;28;20045;-64
2021/10/11 05:09:09;;;;;;;10.90;3.92;;;;;;;;;;5055333;28;20049;-64
2021/10/11 05:11:35;;;;;;;14.63;3.55;;;;;;;;;;5040671;28;20056;-64
2021/10/11 05:14:02;;;;;;;13.23;3.75;;;;;;;;;;5049914;28;20048;-63
2021/10/11 05:16:28;;;;;;;13.98;3.67;;;;;;;;;;5048663;28;20045;-64
2021/10/11 05:18:54;;;;;;;8.95;3.25;;;;;;;;;;5045542;28;20051;-63
2021/10/11 05:21:21;;;;;;;10.65;3.00;;;;;;;;;;5052117;28;20044;-63
2021/10/11 05:23:48;;;;;;;11.65;3.35;;;;;;;;;;5046280;28;20056;-65
2021/10/11 05:26:15;;;;;;;10.10;3.78;;;;;;;;;;5052996;28;20071;-65
2021/10/11 05:28:41;;;;;;;11.10;3.22;;;;;;;;;;5045545;28;20061;-65
2021/10/11 05:31:07;;;;;;;5.70;2.92;;;;;;;;;;5055175;28;20061;-64
2021/10/11 05:33:34;;;;;;;11.98;4.22;;;;;;;;;;5057255;28;20045;-65
2021/10/11 05:36:03;;;;;;;8.93;3.53;;;;;;;;;;5034174;28;20084;-64
2021/10/11 05:38:29;;;;;;;13.45;3.63;;;;;;;;;;5055772;28;20326;-65
2021/10/11 05:40:56;;;;;;;11.10;3.67;;;;;;;;;;5041605;28;20470;-64
2021/10/11 05:43:22;;;;;;;10.02;3.72;;;;;;;;;;5050223;28;20045;-64
2021/10/11 05:45:48;;;;;;;8.30;3.58;;;;;;;;;;5044867;28;20394;-65
2021/10/11 05:48:15;;;;;;;11.85;3.58;;;;;;;;;;5049275;28;20036;-64
2021/10/11 05:50:42;;;;;;;14.95;4.20;;;;;;;;;;5061080;28;20374;-64
2021/10/11 05:53:08;;;;;;;12.10;3.90;;;;;;;;;;5046030;28;20053;-64
2021/10/11 05:55:34;;;;;;;13.57;3.90;;;;;;;;;;5050763;28;20083;-63
2021/10/11 05:58:01;;;;;;;16.17;6.05;;;;;;;;;;5039613;28;20048;-64
2021/10/11 06:00:27;;;;;;;15.48;4.80;;;;;;;;;;5056612;28;20048;-64
2021/10/11 06:02:54;;;;;;;13.18;3.45;;;;;;;;;;5041172;28;20053;-63
2021/10/11 06:05:20;;;;;;;10.30;3.05;;;;;;;;;;5053705;28;20059;-64
2021/10/11 06:07:46;;;;;;;15.88;3.65;;;;;;;;;;5042079;28;20424;-64
2021/10/11 06:10:12;;;;;;;7.55;3.28;;;;;;;;;;5045825;28;20429;-64
2021/10/11 06:12:40;;;;;;;10.55;2.88;;;;;;;;;;5046935;28;20059;-65
2021/10/11 06:15:07;;;;;;;12.02;3.20;;;;;;;;;;5031591;28;20059;-64
2021/10/11 06:17:33;;;;;;;14.95;3.17;;;;;;;;;;5057082;28;20056;-64
2021/10/11 06:19:59;;;;;;;14.30;3.10;;;;;;;;;;5057192;28;20060;-65
2021/10/11 06:22:26;;;;;;;7.78;3.17;;;;;;;;;;5036254;28;20055;-64
2021/10/11 06:24:52;;;;;;;9.00;3.40;;;;;;;;;;5058858;28;20056;-64
2021/10/11 06:27:18;;;;;;;11.23;3.28;;;;;;;;;;5028859;28;20045;-64
2021/10/11 06:29:45;;;;;;;13.02;3.03;;;;;;;;;;5058136;28;20505;-64
2021/10/11 06:32:12;;;;;;;12.07;3.50;;;;;;;;;;5035821;28;21498;-64
2021/10/11 06:34:39;;;;;;;10.90;3.58;;;;;;;;;;5054352;28;20360;-66
2021/10/11 06:37:05;;;;;;;14.25;3.92;;;;;;;;;;5038125;28;20052;-64
2021/10/11 06:39:32;;;;;;;9.80;3.92;;;;;;;;;;5039645;28;20067;-63
2021/10/11 06:41:58;;;;;;;17.83;3.90;;;;;;;;;;5042791;28;20052;-65
2021/10/11 06:44:24;;;;;;;16.92;3.67;;;;;;;;;;5048542;28;20048;-63
2021/10/11 06:46:51;;;;;;;15.43;3.45;;;;;;;;;;5052490;28;20090;-65
2021/10/11 06:49:17;;;;;;;13.55;3.70;;;;;;;;;;5027009;28;20055;-63
2021/10/11 06:51:43;;;;;;;15.27;3.72;;;;;;;;;;5037480;28;20049;-64
2021/10/11 06:54:10;;;;;;;13.18;3.55;;;;;;;;;;5058462;28;20422;-66
2021/10/11 06:56:36;;;;;;;11.88;3.03;;;;;;;;;;5035173;28;20053;-64
2021/10/11 06:59:02;;;;;;;12.15;3.42;;;;;;;;;;5056502;28;20100;-65
2021/10/11 07:01:29;;;;;;;12.93;3.22;;;;;;;;;;5041461;28;20068;-63
2021/10/11 07:03:56;;;;;;;11.45;3.45;;;;;;;;;;5045473;28;20082;-64
2021/10/11 07:06:23;;;;;;;15.85;4.10;;;;;;;;;;5033261;28;20478;-64
2021/10/11 07:08:50;;;;;;;15.67;3.73;;;;;;;;;;5056670;28;20484;-66
2021/10/11 07:11:16;;;;;;;15.85;4.88;;;;;;;;;;5072559;28;20052;-64
2021/10/11 07:13:42;;;;;;;10.98;4.18;;;;;;;;;;5049724;28;20405;-64
2021/10/11 07:16:09;;;;;;;10.20;3.60;;;;;;;;;;5041225;28;20530;-64
2021/10/11 07:18:35;;;;;;;12.63;4.53;;;;;;;;;;5041767;28;20049;-64
2021/10/11 07:21:03;;;;;;;10.95;3.30;;;;;;;;;;5054526;28;20421;-63
2021/10/11 07:23:30;;;;;;;16.60;4.03;;;;;;;;;;5047968;28;20052;-66
2021/10/11 07:25:57;;;;;;;11.93;3.42;;;;;;;;;;5050553;28;20044;-63
2021/10/11 07:28:23;;;;;;;14.10;4.20;;;;;;;;;;5058218;28;20072;-63
2021/10/11 07:30:51;;;;;;;9.57;3.60;;;;;;;;;;5031697;28;20060;-64
2021/10/11 07:33:18;;;;;;;10.77;3.72;;;;;;;;;;5053135;28;20059;-64
2021/10/11 07:35:45;;;;;;;14.48;3.55;;;;;;;;;;5032440;28;20057;-63
2021/10/11 07:38:11;;;;;;;13.90;3.67;;;;;;;;;;5056275;28;20079;-65
2021/10/11 07:40:47;;;;;;;11.88;3.80;;;;;;;;;;5035078;28;20060;-64
2021/10/11 07:43:14;;;;;;;13.43;4.32;;;;;;;;;;5049057;28;20052;-64
2021/10/11 07:45:40;;;;;;;17.30;4.03;;;;;;;;;;5039644;28;20056;-64
2021/10/11 07:48:07;;;;;;;18.98;4.45;;;;;;;;;;5045467;28;20447;-66
2021/10/11 07:50:34;;;;;;;28.35;6.15;;;;;;;;;;5050097;28;20044;-66
2021/10/11 07:53:00;;;;;;;15.32;4.80;;;;;;;;;;5047577;28;20428;-64
2021/10/11 07:55:27;;;;;;;14.05;5.35;;;;;;;;;;5050933;28;20454;-63
2021/10/11 07:57:53;;;;;;;14.25;4.25;;;;;;;;;;5050325;28;20047;-64
2021/10/11 08:00:20;;;;;;;12.82;3.70;;;;;;;;;;5043710;28;20593;-64
2021/10/11 08:02:47;;;;;;;12.35;3.25;;;;;;;;;;5055957;28;20051;-64
2021/10/11 08:05:14;;;;;;;13.05;4.13;;;;;;;;;;5045785;28;20076;-63
2021/10/11 08:07:43;;;;;;;17.70;4.07;;;;;;;;;;5058299;28;20055;-63
2021/10/11 08:10:10;;;;;;;15.75;4.20;;;;;;;;;;5047856;28;21494;-65
2021/10/11 08:12:37;;;;;;;15.60;3.97;;;;;;;;;;5050790;28;20049;-64
2021/10/11 08:15:04;;;;;;;14.75;3.83;;;;;;;;;;5057483;28;20571;-64
2021/10/11 08:17:30;;;;;;;11.55;4.35;;;;;;;;;;5057409;28;20052;-64
2021/10/11 08:19:57;;;;;;;12.70;3.67;;;;;;;;;;5043680;28;20068;-64
2021/10/11 08:22:23;;;;;;;14.52;4.15;;;;;;;;;;5043439;28;20049;-64
2021/10/11 08:24:51;;;;;;;14.02;3.90;;;;;;;;;;5047335;28;20411;-64
2021/10/11 08:27:18;;;;;;;12.98;3.60;;;;;;;;;;5042907;28;20051;-64
2021/10/11 08:29:51;;;;;;;12.45;3.70;;;;;;;;;;5054383;28;20045;-65
2021/10/11 08:32:21;;;;;;;14.13;3.88;;;;;;;;;;5047702;28;20040;-63
2021/10/11 08:34:48;;;;;;;13.57;3.50;;;;;;;;;;5061819;28;20083;-64
2021/10/11 08:37:14;;;;;;;14.38;3.60;;;;;;;;;;5058593;28;20052;-64
2021/10/11 08:39:41;;;;;;;16.30;4.28;;;;;;;;;;5041058;28;20049;-64
2021/10/11 08:42:09;;;;;;;11.63;3.53;;;;;;;;;;5048420;28;20049;-63
2021/10/11 08:44:35;;;;;;;16.25;3.90;;;;;;;;;;5045534;28;20068;-64
2021/10/11 08:47:02;;;;;;;11.63;4.03;;;;;;;;;;5051692;28;20052;-63
2021/10/11 08:49:28;;;;;;;10.48;3.10;;;;;;;;;;5050030;28;20044;-65
2021/10/11 08:51:55;;;;;;;12.55;3.55;;;;;;;;;;5044124;28;20417;-64
2021/10/11 08:54:21;;;;;;;15.55;4.53;;;;;;;;;;5047966;28;20715;-64
2021/10/11 08:56:47;;;;;;;12.55;4.13;;;;;;;;;;5042066;28;20405;-64
2021/10/11 08:59:24;;;;;;;11.85;3.67;;;;;;;;;;5057164;28;20045;-64
2021/10/11 09:01:59;;;;;;;15.75;4.03;;;;;;;;;;5040326;28;20585;-64
2021/10/11 09:04:26;;;;;;;15.30;4.03;;;;;;;;;;5052937;28;20041;-65
2021/10/11 09:07:03;;;;;;;13.90;3.67;;;;;;;;;;5041429;28;20481;-64
2021/10/11 09:09:30;;;;;;;16.60;4.38;;;;;;;;;;5051911;28;20080;-64
2021/10/11 09:11:57;;;;;;;12.90;3.67;;;;;;;;;;5052599;28;20045;-64
2021/10/11 09:14:23;;;;;;;13.20;3.60;;;;;;;;;;5052721;28;20512;-65
2021/10/11 09:17:01;;;;;;;13.02;3.33;;;;;;;;;;5050043;28;20056;-65
2021/10/11 09:19:31;;;;;;;17.30;4.03;;;;;;;;;;5045705;28;20048;-64
2021/10/11 09:21:58;;;;;;;13.07;3.20;;;;;;;;;;5051895;28;20055;-65
2021/10/11 09:24:24;;;;;;;10.85;3.20;;;;;;;;;;5043571;28;20401;-65
2021/10/11 09:26:52;;;;;;;11.50;3.38;;;;;;;;;;5052223;28;20048;-65
2021/10/11 09:29:31;;;;;;;11.13;3.00;;;;;;;;;;5053392;28;20461;-65
2021/10/11 09:31:59;;;;;;;16.40;3.80;;;;;;;;;;5045424;28;20045;-66
2021/10/11 09:34:26;;;;;;;16.13;3.83;;;;;;;;;;5050698;28;20084;-65
2021/10/11 09:36:57;;;;;;;15.57;3.65;;;;;;;;;;5044638;28;20473;-64
2021/10/11 09:39:24;;;;;;;12.60;3.45;;;;;;;;;;5049596;28;20052;-64
2021/10/11 09:41:51;;;;;;;14.27;3.30;;;;;;;;;;5041099;28;20045;-64
2021/10/11 09:44:18;;;;;;;17.92;3.85;;;;;;;;;;5062805;28;20457;-66
2021/10/11 09:46:45;;;;;;;17.00;4.20;;;;;;;;;;5045412;28;20476;-64
2021/10/11 09:49:12;;;;;;;14.57;3.20;;;;;;;;;;5052898;28;20052;-65
2021/10/11 09:51:38;;;;;;;9.10;2.88;;;;;;;;;;5050599;28;20492;-65
2021/10/11 09:54:05;;;;;;;13.00;3.15;;;;;;;;;;5044895;28;20052;-64
2021/10/11 09:56:31;;;;;;;11.88;2.70;;;;;;;;;;5047996;28;20044;-66
2021/10/11 09:58:59;;;;;;;8.35;2.97;;;;;;;;;;5041225;28;20057;-64
2021/10/11 10:01:25;;;;;;;10.65;3.08;;;;;;;;;;5048119;28;20049;-64
2021/10/11 10:03:53;;;;;;;9.90;3.42;;;;;;;;;;5051419;28;20498;-64
2021/10/11 10:06:20;;;;;;;14.48;3.88;;;;;;;;;;5040810;28;20052;-64
2021/10/11 10:08:47;;;;;;;13.10;3.53;;;;;;;;;;5052650;28;20049;-65
2021/10/11 10:11:14;;;;;;;10.85;3.13;;;;;;;;;;5035579;28;20362;-65
2021/10/11 10:13:48;;;;;;;11.68;3.50;;;;;;;;;;5051490;28;20501;-64
2021/10/11 10:16:14;;;;;;;11.45;3.30;;;;;;;;;;5045105;28;20055;-64
2021/10/11 10:18:42;;;;;;;12.95;3.22;;;;;;;;;;5060663;28;20052;-63
2021/10/11 10:21:09;;;;;;;7.70;2.60;;;;;;;;;;5048055;28;20056;-63
2021/10/11 10:23:37;;;;;;;7.25;2.72;;;;;;;;;;5053462;28;20053;-62
2021/10/11 10:26:05;;;;;;;12.95;3.10;;;;;;;;;;5044995;28;20045;-63
2021/10/11 10:28:47;;;;;;;11.13;3.00;;;;;;;;;;5047268;28;20041;-63
2021/10/11 10:31:28;;;;;;;13.75;3.30;;;;;;;;;;5048660;28;20052;-63
2021/10/11 10:33:54;;;;;;;15.02;3.22;;;;;;;;;;5047607;28;20053;-63
2021/10/11 10:36:23;;;;;;;11.70;3.20;;;;;;;;;;5048114;28;20067;-63
2021/10/11 10:39:04;;;;;;;14.00;2.78;;;;;;;;;;5041500;28;20083;-62
2021/10/11 10:41:31;;;;;;;16.02;3.00;;;;;;;;;;5049462;28;20096;-63
2021/10/11 10:44:08;;;;;;;16.17;2.88;;;;;;;;;;5053406;28;20044;-64
2021/10/11 10:46:35;;;;;;;10.68;2.63;;;;;;;;;;5050426;28;20060;-64
2021/10/11 10:49:01;;;;;;;16.23;2.92;;;;;;;;;;5048537;28;20067;-64
2021/10/11 10:51:27;;;;;;;17.55;2.92;;;;;;;;;;5040332;28;20036;-64
2021/10/11 10:53:57;;;;;;;19.92;3.15;;;;;;;;;;5054675;28;20056;-64
2021/10/11 10:56:24;;;;;;;12.25;3.25;;;;;;;;;;5041875;28;20048;-64
2021/10/11 10:59:03;;;;;;;18.13;3.33;;;;;;;;;;5056623;28;20045;-64
2021/10/11 11:01:31;;;;;;;12.32;3.20;;;;;;;;;;5040685;28;20428;-64
2021/10/11 11:03:58;;;;;;;9.60;2.35;;;;;;;;;;5059623;28;20054;-64
2021/10/11 11:06:30;;;;;;;15.98;2.53;;;;;;;;;;5034900;28;20086;-64
2021/10/11 11:08:58;;;;;;;14.93;2.78;;;;;;;;;;5041980;28;20156;-64
2021/10/11 11:11:28;;;;;;;9.30;1.75;;;;;;;;;;5049496;28;20417;-64
2021/10/11 11:13:56;;;;;;;16.30;2.60;;;;;;;;;;5046846;28;20048;-64
2021/10/11 11:16:29;;;;;;;12.17;1.63;;;;;;;;;;5050290;28;20062;-64
2021/10/11 11:18:57;;;;;;;8.90;2.55;;;;;;;;;;5044928;28;20059;-65
2021/10/11 11:21:24;;;;;;;13.70;2.05;;;;;;;;;;5045204;28;20041;-64
2021/10/11 11:23:50;;;;;;;15.32;2.80;;;;;;;;;;5052822;28;20055;-64
2021/10/11 11:26:17;;;;;;;6.63;1.50;;;;;;;;;;5042185;28;20560;-64
2021/10/11 11:28:44;;;;;;;15.98;2.28;;;;;;;;;;5050403;28;20057;-64
2021/10/11 11:31:11;;;;;;;8.90;1.90;;;;;;;;;;5042730;28;20063;-65
2021/10/11 11:33:42;;;;;;;13.75;2.70;;;;;;;;;;5043731;28;20053;-64
2021/10/11 11:36:10;;;;;;;9.85;2.33;;;;;;;;;;5037715;28;20048;-65
2021/10/11 11:38:38;;;;;;;12.32;1.80;;;;;;;;;;5058322;28;20055;-64
2021/10/11 11:41:05;;;;;;;12.00;1.95;;;;;;;;;;5046328;28;20044;-65
2021/10/11 11:43:36;;;;;;;9.82;1.70;;;;;;;;;;5045702;28;20258;-65
2021/10/11 11:46:03;;;;;;;12.15;1.88;;;;;;;;;;5045262;28;20066;-64
2021/10/11 11:48:30;;;;;;;11.07;1.52;;;;;;;;;;5036583;28;20486;-64
2021/10/11 11:50:58;;;;;;;8.50;1.45;;;;;;;;;;5049447;28;20055;-64
2021/10/11 11:53:25;;;;;;;9.67;1.73;;;;;;;;;;5041391;28;20052;-64
2021/10/11 11:55:53;;;;;;;13.25;1.80;;;;;;;;;;5047830;28;20285;-64
2021/10/11 11:58:22;;;;;;;8.60;1.75;;;;;;;;;;5046395;28;20052;-65
2021/10/11 12:00:49;;;;;;;7.65;1.60;;;;;;;;;;5028022;28;20059;-65
2021/10/11 12:03:20;;;;;;;11.43;2.58;;;;;;;;;;5043817;28;20071;-65
2021/10/11 12:05:53;;;;;;;7.70;1.55;;;;;;;;;;5038944;28;20048;-65
2021/10/11 12:08:20;;;;;;;9.43;1.42;;;;;;;;;;5048200;28;20056;-65
2021/10/11 12:11:15;;;;;;;7.68;1.38;;;;;;;;;;5040451;28;20052;-65
2021/10/11 12:13:43;;;;;;;11.07;1.95;;;;;;;;;;5031059;28;20052;-64
2021/10/11 12:16:10;;;;;;;;;;;;;;;;;;5038752;28;20063;-65
2021/10/11 12:18:43;;;;;;;11.02;1.70;;;;;;;;;;5061880;28;19924;-65
2021/10/11 12:21:28;;;;;;;4.93;1.50;;;;;;;;;;5045636;28;20055;-65
2021/10/11 12:23:55;;;;;;;10.25;1.65;;;;;;;;;;5046593;28;20060;-65
2021/10/11 12:26:23;;;;;;;13.35;1.98;;;;;;;;;;5057280;28;20051;-64
2021/10/11 12:28:51;;;;;;;10.07;1.30;;;;;;;;;;5029793;28;20045;-64
2021/10/11 12:31:22;;;;;;;10.88;1.20;;;;;;;;;;5031404;28;20053;-64
2021/10/11 12:33:49;;;;;;;11.77;1.70;;;;;;;;;;5035985;28;20569;-64
2021/10/11 12:36:16;;;;;;;5.20;1.40;;;;;;;;;;5062183;28;20452;-64
2021/10/11 12:38:42;;;;;;;4.63;1.00;;;;;;;;;;5049454;28;20290;-66
2021/10/11 12:41:10;;;;;;;13.50;1.50;;;;;;;;;;5056746;28;20056;-64
2021/10/11 12:43:36;;;;;;;7.07;1.05;;;;;;;;;;5055093;28;20052;-64
2021/10/11 12:46:07;;;;;;;9.15;1.40;;;;;;;;;;5052867;28;20056;-65
2021/10/11 12:48:34;;;;;;;5.05;0.90;;;;;;;;;;5050398;28;20053;-64
2021/10/11 12:51:01;;;;;;;8.38;1.13;;;;;;;;;;5047383;28;20485;-65
2021/10/11 12:53:28;;;;;;;8.43;1.10;;;;;;;;;;5049855;28;20056;-65
2021/10/11 12:55:54;;;;;;;11.70;1.20;;;;;;;;;;5042654;28;20054;-64
2021/10/11 12:58:25;;;;;;;6.35;1.00;;;;;;;;;;5045283;28;20489;-65
2021/10/11 13:00:52;;;;;;;6.68;1.00;;;;;;;;;;5055428;28;20059;-64
2021/10/11 13:03:19;;;;;;;7.15;1.10;;;;;;;;;;5037730;28;20068;-65
2021/10/11 13:05:46;;;;;;;7.32;1.27;;;;;;;;;;5055028;28;20322;-65
2021/10/11 13:08:12;;;;;;;8.43;1.08;;;;;;;;;;5053992;28;20045;-64
2021/10/11 13:10:39;;;;;;;9.57;1.10;;;;;;;;;;5055859;28;20045;-64
2021/10/11 13:13:05;;;;;;;8.63;0.90;;;;;;;;;;5044529;28;20049;-64
2021/10/11 13:15:32;;;;;;;6.63;1.10;;;;;;;;;;5053415;28;20420;-64
2021/10/11 13:17:59;;;;;;;9.43;1.13;;;;;;;;;;5061100;28;20063;-64
2021/10/11 13:20:25;;;;;;;5.63;1.00;;;;;;;;;;5055273;28;20091;-64
2021/10/11 13:22:52;;;;;;;7.25;1.20;;;;;;;;;;5056456;28;20057;-64
2021/10/11 13:25:18;;;;;;;5.68;1.25;;;;;;;;;;5045422;28;20048;-64
2021/10/11 13:27:44;;;;;;;6.35;1.17;;;;;;;;;;5069748;28;20048;-65
2021/10/11 13:36:11;;;;;;;6.75;1.02;;;;;;;;;;5041391;28;20049;-64
2021/10/11 13:41:42;;;;;;;6.88;1.40;;;;;;;;;;5056832;28;20060;-65
2021/10/11 14:27:57;;;;;;;9.98;1.33;;;;;;;;;;5048739;28;20057;-63
2021/10/11 14:30:29;;;;;;;8.45;1.38;;;;;;;;;;5056530;28;20055;-64
2021/10/11 14:33:14;;;;;;;7.30;1.40;;;;;;;;;;5045982;28;20052;-63
2021/10/11 15:58:22;;;;;;;4.57;1.10;;;;;;;;;;5044099;28;20075;-62
2021/10/11 16:03:31;;;;;;;7.00;1.33;;;;;;;;;;5045600;28;20060;-64
2021/10/11 16:05:57;;;;;;;5.05;1.35;;;;;;;;;;5042374;28;20057;-64
2021/10/11 16:08:24;;;;;;;6.10;1.13;;;;;;;;;;5047726;28;20057;-63
2021/10/11 16:10:51;;;;;;;14.15;2.28;;;;;;;;;;5048888;28;20144;-63
2021/10/11 16:13:17;;;;;;;8.32;1.00;;;;;;;;;;5058985;28;20044;-63
2021/10/11 16:15:44;;;;;;;3.90;1.02;;;;;;;;;;5060307;28;20052;-63
2021/10/11 16:18:32;;;;;;;9.40;1.27;;;;;;;;;;5053111;28;20048;-63
2021/10/11 16:21:00;;;;;;;6.35;1.38;;;;;;;;;;5037774;28;20067;-64
2021/10/11 16:23:26;;;;;;;8.18;1.30;;;;;;;;;;5045809;28;20051;-63
2021/10/11 16:25:53;;;;;;;5.97;1.00;;;;;;;;;;5061971;28;20056;-63
2021/10/11 16:28:21;;;;;;;8.65;1.02;;;;;;;;;;5049243;28;20048;-63
2021/10/11 16:30:48;;;;;;;8.00;0.90;;;;;;;;;;5052798;28;20068;-63
2021/10/11 16:33:15;;;;;;;8.63;1.10;;;;;;;;;;5047881;28;20044;-63
2021/10/11 16:35:42;;;;;;;7.95;1.20;;;;;;;;;;5045399;28;20057;-63
2021/10/11 16:38:08;;;;;;;6.45;1.20;;;;;;;;;;5058333;28;20052;-62
2021/10/11 16:40:38;;;;;;;8.88;1.20;;;;;;;;;;5044775;28;20056;-62
2021/10/11 16:43:04;;;;;;;6.15;1.00;;;;;;;;;;5055904;28;20048;-62
2021/10/11 16:45:31;;;;;;;9.55;1.90;;;;;;;;;;5047625;28;20055;-63
2021/10/11 16:47:57;;;;;;;5.60;1.05;;;;;;;;;;5052001;28;20539;-63
2021/10/11 16:50:24;;;;;;;7.10;1.42;;;;;;;;;;5051657;28;20045;-63
2021/10/11 16:52:50;;;;;;;4.82;0.95;;;;;;;;;;5043898;28;20083;-63
2021/10/11 16:55:18;;;;;;;5.07;0.90;;;;;;;;;;5056132;28;20490;-63